Time;durP1;ratioP1;P1;durP2;ratioP2;P2;SDS_P1;SDS_P2;PMS_P1;PMS_P2;Temp;Humidity;BMP_temperature;BMP_pressure;BME280_temperature;BME280_humidity;BME280_pressure;Samples;Min_cycle;Max_cycle;Signal;HPM_P1;HPM_P2
2022/09/23 00:00:29;;;;;;;;;;;10.90;60.10;;;;;;5143322;27;20365;-72
2022/09/23 00:02:55;;;;;;;;;;;10.90;60.10;;;;;;5143041;27;20289;-72
2022/09/23 00:05:20;;;;;;;;;;;10.90;60.10;;;;;;5144419;27;19956;-72
2022/09/23 00:07:47;;;;;;;;;;;10.90;60.10;;;;;;5142713;27;19914;-72
2022/09/23 00:10:13;;;;;;;;;;;10.80;60.00;;;;;;5143134;27;19903;-72
2022/09/23 00:12:38;;;;;;;;;;;10.80;60.00;;;;;;5126006;27;20272;-72
2022/09/23 00:15:04;;;;;;;;;;;10.80;60.00;;;;;;5142308;27;19928;-72
2022/09/23 00:17:30;;;;;;;;;;;10.80;60.00;;;;;;5142785;27;19906;-72
2022/09/23 00:19:55;;;;;;;;;;;10.80;60.10;;;;;;5142336;27;20285;-72
2022/09/23 00:22:21;;;;;;;;;;;10.70;60.10;;;;;;5143969;27;19917;-72
2022/09/23 00:24:47;;;;;;;;;;;10.70;60.10;;;;;;5143813;27;19914;-72
2022/09/23 00:27:13;;;;;;;;;;;10.70;60.10;;;;;;5142817;27;19903;-72
2022/09/23 00:29:39;;;;;;;;;;;10.70;60.10;;;;;;5144130;27;19911;-72
2022/09/23 00:32:04;;;;;;;;;;;10.60;60.10;;;;;;5141845;27;19915;-72
2022/09/23 00:34:30;;;;;;;;;;;10.60;60.10;;;;;;5143399;27;19973;-72
2022/09/23 00:36:58;;;;;;;;;;;10.60;60.20;;;;;;5124038;27;20365;-72
2022/09/23 00:39:25;;;;;;;;;;;10.60;60.20;;;;;;5141903;27;19907;-73
2022/09/23 00:41:51;;;;;;;;;;;10.50;60.10;;;;;;5124662;27;20346;-72
2022/09/23 00:44:35;;;;;;;;;;;10.50;60.10;;;;;;5125376;27;19907;-72
2022/09/23 00:47:01;;;;;;;;;;;10.50;60.20;;;;;;5138979;27;20255;-72
2022/09/23 00:49:28;;;;;;;;;;;10.50;60.30;;;;;;5145676;27;19911;-72
2022/09/23 00:51:56;;;;;;;;;;;10.50;60.30;;;;;;5141838;27;19911;-72
2022/09/23 00:54:23;;;;;;;;;;;10.50;60.40;;;;;;5137979;27;19929;-72
2022/09/23 00:56:49;;;;;;;;;;;10.50;60.40;;;;;;5138095;27;20285;-71
2022/09/23 00:59:14;;;;;;;;;;;10.40;60.40;;;;;;5137831;27;19914;-72
2022/09/23 01:01:41;;;;;;;;;;;10.40;60.50;;;;;;5137923;27;19904;-72
2022/09/23 01:04:07;;;;;;;;;;;10.40;60.50;;;;;;5119478;27;20255;-71
2022/09/23 01:06:33;;;;;;;;;;;10.40;60.60;;;;;;5132002;27;19914;-72
2022/09/23 01:08:58;;;;;;;;;;;10.40;60.70;;;;;;5141924;27;19903;-72
2022/09/23 01:11:32;;;;;;;;;;;10.40;60.60;;;;;;5137749;27;19903;-72
2022/09/23 01:14:09;;;;;;;;;;;10.30;60.60;;;;;;5137752;27;19904;-72
2022/09/23 01:16:34;;;;;;;;;;;10.40;60.70;;;;;;5137618;27;19908;-72
2022/09/23 01:19:21;;;;;;;;;;;10.40;60.70;;;;;;5137584;27;19917;-72
2022/09/23 01:22:01;;;;;;;;;;;10.30;60.60;;;;;;5137533;27;19903;-72
2022/09/23 01:24:36;;;;;;;;;;;10.30;60.60;;;;;;5137383;27;19904;-72
2022/09/23 01:27:06;;;;;;;;;;;10.30;60.60;;;;;;5150006;27;19907;-72
2022/09/23 01:29:39;;;;;;;;;;;10.30;60.70;;;;;;5118811;27;19903;-72
2022/09/23 01:32:08;;;;;;;;;;;10.20;60.70;;;;;;5118860;27;20354;-73
2022/09/23 01:34:37;;;;;;;;;;;10.20;60.70;;;;;;5137316;27;19907;-72
2022/09/23 01:37:23;;;;;;;;;;;10.20;60.70;;;;;;5119018;27;20304;-73
2022/09/23 01:40:16;;;;;;;;;;;10.20;60.80;;;;;;5137414;27;20323;-72
2022/09/23 01:42:48;;;;;;;;;;;10.20;60.90;;;;;;5133313;27;20047;-72
2022/09/23 01:45:18;;;;;;;;;;;10.20;60.90;;;;;;5137177;27;20251;-72
2022/09/23 01:47:47;;;;;;;;;;;10.10;60.90;;;;;;5137767;27;20002;-72
2022/09/23 01:53:09;;;;;;;;;;;10.10;61.00;;;;;;5140802;27;19926;-72
2022/09/23 01:55:38;;;;;;;;;;;10.10;61.00;;;;;;5137010;27;19903;-72
2022/09/23 01:58:07;;;;;;;;;;;10.10;61.20;;;;;;5136794;27;19907;-72
2022/09/23 02:00:39;;;;;;;;;;;10.10;61.20;;;;;;5135788;27;19995;-72
2022/09/23 02:03:14;;;;;;;;;;;10.10;61.40;;;;;;5118211;27;20376;-72
2022/09/23 02:05:57;;;;;;;;;;;10.10;61.40;;;;;;5136551;27;19910;-72
2022/09/23 02:08:25;;;;;;;;;;;10.10;62.20;;;;;;5137210;27;19903;-72
2022/09/23 02:10:59;;;;;;;;;;;10.10;61.40;;;;;;5157160;27;20254;-72
2022/09/23 02:13:28;;;;;;;;;;;10.10;61.40;;;;;;5155364;27;19911;-72
2022/09/23 02:15:56;;;;;;;;;;;10.00;61.40;;;;;;5156278;27;19903;-72
2022/09/23 02:18:24;;;;;;;;;;;10.10;61.40;;;;;;5137545;27;20001;-72
2022/09/23 02:20:51;;;;;;;;;;;10.00;61.40;;;;;;5157112;27;19903;-72
2022/09/23 02:23:38;;;;;;;;;;;10.00;61.40;;;;;;5157080;27;19907;-72
2022/09/23 02:26:18;;;;;;;;;;;10.00;61.40;;;;;;5138339;27;19907;-72
2022/09/23 02:28:55;;;;;;;;;;;10.00;61.50;;;;;;5156950;27;19917;-72
2022/09/23 02:31:30;;;;;;;;;;;10.00;61.70;;;;;;5155516;27;19950;-72
2022/09/23 02:33:55;;;;;;;;;;;10.00;61.70;;;;;;5136012;27;19915;-72
2022/09/23 02:36:26;;;;;;;;;;;10.00;61.70;;;;;;5136063;27;19907;-72
2022/09/23 02:38:56;;;;;;;;;;;10.00;61.80;;;;;;5135939;27;19932;-72
2022/09/23 02:41:27;;;;;;;;;;;10.00;61.70;;;;;;5135905;27;19909;-72
2022/09/23 02:43:55;;;;;;;;;;;9.90;61.70;;;;;;5117691;27;19918;-72
2022/09/23 02:46:21;;;;;;;;;;;10.00;61.80;;;;;;5135727;27;19964;-72
2022/09/23 02:48:49;;;;;;;;;;;9.90;61.70;;;;;;5118046;27;19911;-72
2022/09/23 02:51:14;;;;;;;;;;;9.90;61.70;;;;;;5140665;27;19903;-72
2022/09/23 02:53:40;;;;;;;;;;;9.90;61.70;;;;;;5117417;27;20290;-72
2022/09/23 02:56:13;;;;;;;;;;;9.90;61.70;;;;;;5135751;27;19946;-72
2022/09/23 02:58:39;;;;;;;;;;;9.90;61.70;;;;;;5117265;27;19994;-72
2022/09/23 03:01:07;;;;;;;;;;;9.90;61.70;;;;;;5135628;27;20590;-72
2022/09/23 03:03:45;;;;;;;;;;;9.90;61.80;;;;;;5135472;27;19999;-72
2022/09/23 03:06:23;;;;;;;;;;;9.90;61.80;;;;;;5117052;27;19903;-72
2022/09/23 03:09:09;;;;;;;;;;;9.80;61.70;;;;;;5135404;27;19967;-73
2022/09/23 03:11:37;;;;;;;;;;;9.80;61.80;;;;;;5135320;27;19904;-72
2022/09/23 03:14:21;;;;;;;;;;;9.80;61.90;;;;;;5145065;27;19907;-72
2022/09/23 03:16:59;;;;;;;;;;;9.80;62.30;;;;;;5149079;27;20239;-72
2022/09/23 03:19:27;;;;;;;;;;;9.80;62.60;;;;;;5143443;27;19998;-72
2022/09/23 03:21:59;;;;;;;;;;;9.80;62.90;;;;;;5138291;27;19911;-72
2022/09/23 03:24:26;;;;;;;;;;;9.80;63.10;;;;;;5135249;27;19908;-72
2022/09/23 03:26:53;;;;;;;;;;;9.80;63.20;;;;;;5116657;27;20350;-72
2022/09/23 03:29:20;;;;;;;;;;;9.80;63.30;;;;;;5124131;27;19906;-72
2022/09/23 03:31:46;;;;;;;;;;;9.80;63.30;;;;;;5154300;27;19910;-72
2022/09/23 03:34:17;;;;;;;;;;;9.80;63.30;;;;;;5155098;27;19907;-72
2022/09/23 03:36:50;;;;;;;;;;;9.80;63.60;;;;;;5155695;27;20246;-72
2022/09/23 03:39:31;;;;;;;;;;;9.80;63.70;;;;;;5137039;27;19994;-72
2022/09/23 03:41:58;;;;;;;;;;;9.80;63.80;;;;;;5155208;27;19903;-72
2022/09/23 03:44:24;;;;;;;;;;;9.80;63.90;;;;;;5116511;27;20043;-72
2022/09/23 03:46:49;;;;;;;;;;;9.80;63.70;;;;;;5116072;27;19972;-72
2022/09/23 03:49:23;;;;;;;;;;;9.80;63.60;;;;;;5135405;27;19911;-72
2022/09/23 03:51:48;;;;;;;;;;;9.80;63.50;;;;;;5134547;27;19903;-72
2022/09/23 03:54:14;;;;;;;;;;;9.80;63.50;;;;;;5134290;27;19903;-72
2022/09/23 03:56:40;;;;;;;;;;;9.80;63.50;;;;;;5116107;27;19953;-72
2022/09/23 03:59:05;;;;;;;;;;;9.80;63.50;;;;;;5115971;27;19942;-72
2022/09/23 04:01:31;;;;;;;;;;;9.80;63.50;;;;;;5150747;27;19935;-72
2022/09/23 04:03:57;;;;;;;;;;;9.80;63.50;;;;;;5153936;27;19914;-72
2022/09/23 04:06:22;;;;;;;;;;;9.80;63.60;;;;;;5151856;27;19925;-72
2022/09/23 04:08:48;;;;;;;;;;;9.80;63.60;;;;;;5153316;27;19960;-72
2022/09/23 04:11:13;;;;;;;;;;;9.70;63.50;;;;;;5155120;27;19903;-72
2022/09/23 04:13:39;;;;;;;;;;;9.70;63.50;;;;;;5140098;27;20417;-72
2022/09/23 04:16:05;;;;;;;;;;;9.70;63.40;;;;;;5134293;27;19916;-72
2022/09/23 04:18:30;;;;;;;;;;;9.70;63.40;;;;;;5136074;27;19976;-72
2022/09/23 04:20:57;;;;;;;;;;;9.60;63.30;;;;;;5154974;27;19910;-72
2022/09/23 04:23:23;;;;;;;;;;;9.60;63.40;;;;;;5135066;27;19947;-72
2022/09/23 04:25:49;;;;;;;;;;;9.60;63.60;;;;;;5154847;27;19990;-72
2022/09/23 04:28:15;;;;;;;;;;;9.60;63.60;;;;;;5154724;27;20052;-72
2022/09/23 04:30:42;;;;;;;;;;;9.60;63.60;;;;;;5136241;27;19961;-72
2022/09/23 04:33:09;;;;;;;;;;;9.50;63.60;;;;;;5154450;27;19915;-72
2022/09/23 04:35:36;;;;;;;;;;;9.50;63.80;;;;;;5154846;27;19909;-72
2022/09/23 04:38:02;;;;;;;;;;;9.50;63.90;;;;;;5152779;27;20002;-72
2022/09/23 04:40:28;;;;;;;;;;;9.50;63.80;;;;;;5154699;27;19903;-72
2022/09/23 04:42:53;;;;;;;;;;;9.50;63.80;;;;;;5154671;27;19899;-72
2022/09/23 04:45:19;;;;;;;;;;;9.50;64.50;;;;;;5154600;27;19903;-72
2022/09/23 04:47:44;;;;;;;;;;;9.40;63.70;;;;;;5140793;27;19908;-72
2022/09/23 04:50:10;;;;;;;;;;;9.40;63.70;;;;;;5115481;28;19907;-72
2022/09/23 04:52:36;;;;;;;;;;;9.40;63.70;;;;;;5134036;27;20289;-72
2022/09/23 04:55:01;;;;;;;;;;;9.40;63.70;;;;;;5115434;28;19903;-72
2022/09/23 04:57:28;;;;;;;;;;;9.40;63.80;;;;;;5133640;28;19908;-72
2022/09/23 04:59:55;;;;;;;;;;;9.40;63.90;;;;;;5133715;27;19932;-72
2022/09/23 05:02:21;;;;;;;;;;;9.40;63.90;;;;;;5115343;28;19903;-72
2022/09/23 05:04:47;;;;;;;;;;;9.30;64.00;;;;;;5115247;28;20318;-72
2022/09/23 05:07:12;;;;;;;;;;;9.30;64.10;;;;;;5115014;28;19903;-72
2022/09/23 05:09:38;;;;;;;;;;;9.30;64.20;;;;;;5124878;27;19907;-72
2022/09/23 05:12:04;;;;;;;;;;;9.30;64.20;;;;;;5153960;27;19903;-72
2022/09/23 05:14:29;;;;;;;;;;;9.40;64.40;;;;;;5134582;27;19904;-72
2022/09/23 05:16:55;;;;;;;;;;;9.40;64.50;;;;;;5133356;27;20386;-72
2022/09/23 05:19:21;;;;;;;;;;;9.40;64.50;;;;;;5133388;27;19911;-72
2022/09/23 05:21:47;;;;;;;;;;;9.40;64.60;;;;;;5133880;28;19951;-72
2022/09/23 05:24:12;;;;;;;;;;;9.40;64.60;;;;;;5133631;28;19951;-72
2022/09/23 05:26:38;;;;;;;;;;;9.50;64.80;;;;;;5133623;28;19903;-72
2022/09/23 05:29:04;;;;;;;;;;;9.50;64.80;;;;;;5133388;27;19907;-71
2022/09/23 05:31:29;;;;;;;;;;;9.50;65.00;;;;;;5133264;28;19942;-73
2022/09/23 05:33:59;;;;;;;;;;;9.60;65.20;;;;;;5133301;28;19907;-71
2022/09/23 05:36:26;;;;;;;;;;;9.60;65.30;;;;;;5135382;27;19950;-70
2022/09/23 05:38:52;;;;;;;;;;;9.70;65.40;;;;;;5136918;27;19943;-71
2022/09/23 05:41:19;;;;;;;;;;;9.70;65.60;;;;;;5137117;27;19941;-71
2022/09/23 05:43:46;;;;;;;;;;;9.80;65.70;;;;;;5136978;27;19899;-71
2022/09/23 05:46:11;;;;;;;;;;;9.90;65.90;;;;;;5118391;27;19910;-71
2022/09/23 05:48:37;;;;;;;;;;;9.90;65.90;;;;;;5133826;27;19911;-71
2022/09/23 05:51:07;;;;;;;;;;;10.00;66.00;;;;;;5157500;27;20270;-70
2022/09/23 05:53:33;;;;;;;;;;;10.00;66.10;;;;;;5147861;27;19993;-71
2022/09/23 05:55:59;;;;;;;;;;;10.10;66.10;;;;;;5147028;27;20001;-71
2022/09/23 05:58:26;;;;;;;;;;;10.20;66.10;;;;;;5145579;27;19907;-71
2022/09/23 06:00:55;;;;;;;;;;;10.20;66.20;;;;;;5126860;27;20254;-71
2022/09/23 06:03:22;;;;;;;;;;;10.30;66.30;;;;;;5146659;27;19951;-71
2022/09/23 06:05:50;;;;;;;;;;;10.30;66.30;;;;;;5145718;27;19904;-71
2022/09/23 06:08:16;;;;;;;;;;;10.40;66.30;;;;;;5145794;27;19907;-73
2022/09/23 06:10:43;;;;;;;;;;;10.40;66.30;;;;;;5146184;27;19927;-71
2022/09/23 06:13:10;;;;;;;;;;;10.50;66.30;;;;;;5149637;27;19943;-71
2022/09/23 06:15:36;;;;;;;;;;;10.60;66.30;;;;;;5136302;27;19993;-71
2022/09/23 06:18:02;;;;;;;;;;;10.60;66.30;;;;;;5136491;27;20378;-71
2022/09/23 06:20:27;;;;;;;;;;;10.70;66.30;;;;;;5136469;27;19903;-71
2022/09/23 06:22:53;;;;;;;;;;;10.80;66.40;;;;;;5118056;27;19903;-71
2022/09/23 06:25:20;;;;;;;;;;;10.80;66.30;;;;;;5136376;27;20438;-71
2022/09/23 06:27:55;;;;;;;;;;;10.90;66.40;;;;;;5136063;27;19935;-71
2022/09/23 06:30:22;;;;;;;;;;;11.00;66.40;;;;;;5136038;27;20350;-72
2022/09/23 06:32:51;;;;;;;;;;;11.00;66.40;;;;;;5113732;28;19926;-72
2022/09/23 06:35:20;;;;;;;;;;;11.10;66.30;;;;;;5115297;28;19908;-72
2022/09/23 06:37:46;;;;;;;;;;;11.20;66.30;;;;;;5114088;28;19900;-71
2022/09/23 06:40:13;;;;;;;;;;;11.20;66.20;;;;;;5115498;28;19903;-72
2022/09/23 06:42:41;;;;;;;;;;;11.30;66.20;;;;;;5114144;28;20282;-72
2022/09/23 06:45:10;;;;;;;;;;;11.40;66.20;;;;;;5115312;28;19956;-72
2022/09/23 06:47:36;;;;;;;;;;;11.50;66.10;;;;;;5114370;27;19944;-71
2022/09/23 06:50:02;;;;;;;;;;;11.50;66.00;;;;;;5135082;27;19907;-71
2022/09/23 06:52:28;;;;;;;;;;;11.60;66.10;;;;;;5135801;27;19998;-72
2022/09/23 06:54:53;;;;;;;;;;;11.60;66.00;;;;;;5131515;27;19906;-71
2022/09/23 06:57:19;;;;;;;;;;;11.70;66.10;;;;;;5121437;27;19907;-71
2022/09/23 06:59:45;;;;;;;;;;;11.80;66.10;;;;;;5135730;27;19907;-72
2022/09/23 07:02:11;;;;;;;;;;;11.90;66.00;;;;;;5135518;27;19903;-71
2022/09/23 07:04:36;;;;;;;;;;;11.90;66.00;;;;;;5135497;27;19903;-72
2022/09/23 07:07:02;;;;;;;;;;;12.00;65.90;;;;;;5134104;27;19910;-71
2022/09/23 07:09:27;;;;;;;;;;;12.10;66.60;;;;;;5120069;27;19965;-71
2022/09/23 07:11:53;;;;;;;;;;;12.10;65.70;;;;;;5114817;28;20002;-71
2022/09/23 07:14:19;;;;;;;;;;;12.20;65.50;;;;;;5124721;27;19916;-72
2022/09/23 07:16:47;;;;;;;;;;;12.20;65.40;;;;;;5132138;27;20014;-71
2022/09/23 07:19:12;;;;;;;;;;;12.30;65.30;;;;;;5114572;28;20346;-71
2022/09/23 07:21:38;;;;;;;;;;;12.30;65.30;;;;;;5114716;28;19910;-71
2022/09/23 07:24:04;;;;;;;;;;;12.40;65.30;;;;;;5114567;28;19953;-72
2022/09/23 07:26:32;;;;;;;;;;;12.50;65.30;;;;;;5113377;28;20365;-71
2022/09/23 07:29:03;;;;;;;;;;;12.60;65.20;;;;;;5131316;27;19948;-71
2022/09/23 07:31:33;;;;;;;;;;;12.60;65.00;;;;;;5136383;27;20020;-72
2022/09/23 07:34:02;;;;;;;;;;;12.70;64.90;;;;;;5155719;27;19907;-72
2022/09/23 07:36:28;;;;;;;;;;;12.80;64.70;;;;;;5155564;27;19910;-72
2022/09/23 07:38:59;;;;;;;;;;;12.80;64.60;;;;;;5155573;27;20005;-72
2022/09/23 07:41:26;;;;;;;;;;;12.90;64.40;;;;;;5155679;27;19907;-72
2022/09/23 07:43:54;;;;;;;;;;;12.90;63.90;;;;;;5144480;27;19939;-72
2022/09/23 07:46:20;;;;;;;;;;;13.00;64.00;;;;;;5134675;27;20362;-72
2022/09/23 07:48:45;;;;;;;;;;;13.10;64.00;;;;;;5136789;27;19978;-71
2022/09/23 07:51:13;;;;;;;;;;;13.10;63.90;;;;;;5155492;27;19938;-72
2022/09/23 07:53:39;;;;;;;;;;;13.20;63.90;;;;;;5145800;27;19907;-72
2022/09/23 07:56:07;;;;;;;;;;;13.30;63.80;;;;;;5134484;27;19903;-71
2022/09/23 07:58:33;;;;;;;;;;;13.30;63.60;;;;;;5133601;27;19911;-72
2022/09/23 08:01:06;;;;;;;;;;;13.40;63.40;;;;;;5134521;27;19903;-72
2022/09/23 08:03:32;;;;;;;;;;;13.50;63.20;;;;;;5134209;27;19903;-72
2022/09/23 08:06:07;;;;;;;;;;;13.50;63.10;;;;;;5134341;27;20423;-72
2022/09/23 08:08:34;;;;;;;;;;;13.60;63.10;;;;;;5115932;27;19986;-72
2022/09/23 08:11:03;;;;;;;;;;;13.70;62.80;;;;;;5134345;27;20375;-72
2022/09/23 08:13:29;;;;;;;;;;;13.80;62.60;;;;;;5116079;27;20437;-72
2022/09/23 08:15:55;;;;;;;;;;;13.80;62.50;;;;;;5134375;27;19990;-72
2022/09/23 08:18:21;;;;;;;;;;;13.90;62.40;;;;;;5115661;27;20315;-72
2022/09/23 08:20:46;;;;;;;;;;;13.90;62.10;;;;;;5134239;27;19954;-72
2022/09/23 08:23:13;;;;;;;;;;;14.00;61.90;;;;;;5115829;27;19904;-72
2022/09/23 08:25:42;;;;;;;;;;;14.10;61.80;;;;;;5134125;27;19952;-72
2022/09/23 08:28:08;;;;;;;;;;;14.10;61.50;;;;;;5134137;27;19929;-72
2022/09/23 08:30:34;;;;;;;;;;;14.20;62.10;;;;;;5140837;27;19910;-73
2022/09/23 08:32:59;;;;;;;;;;;14.30;61.40;;;;;;5154592;27;19915;-72
2022/09/23 08:35:25;;;;;;;;;;;14.40;61.30;;;;;;5154780;27;19910;-72
2022/09/23 08:37:51;;;;;;;;;;;14.50;61.30;;;;;;5147020;27;20386;-73
2022/09/23 08:40:17;;;;;;;;;;;14.50;61.30;;;;;;5134118;28;19904;-72
2022/09/23 08:42:44;;;;;;;;;;;14.60;61.20;;;;;;5137062;27;19907;-73
2022/09/23 08:45:20;;;;;;;;;;;14.70;61.10;;;;;;5154757;27;19910;-73
2022/09/23 08:47:50;;;;;;;;;;;14.80;60.70;;;;;;5144216;27;19914;-73
2022/09/23 08:50:17;;;;;;;;;;;14.90;60.50;;;;;;5134034;27;19930;-73
2022/09/23 08:52:48;;;;;;;;;;;15.00;60.30;;;;;;5133852;28;19910;-73
2022/09/23 08:55:14;;;;;;;;;;;15.00;60.00;;;;;;5133788;28;19904;-73
2022/09/23 08:57:55;;;;;;;;;;;15.10;60.00;;;;;;5133745;28;19918;-72
2022/09/23 09:00:26;;;;;;;;;;;15.10;59.90;;;;;;5133741;27;19904;-72
2022/09/23 09:02:52;;;;;;;;;;;15.20;59.80;;;;;;5153613;27;19938;-72
2022/09/23 09:05:21;;;;;;;;;;;15.30;59.60;;;;;;5154577;27;19907;-73
2022/09/23 09:07:48;;;;;;;;;;;15.30;59.60;;;;;;5154601;27;19955;-72
2022/09/23 09:10:15;;;;;;;;;;;15.40;59.40;;;;;;5156564;27;20281;-72
2022/09/23 09:12:41;;;;;;;;;;;15.50;59.30;;;;;;5158497;27;20276;-73
2022/09/23 09:15:11;;;;;;;;;;;15.50;59.20;;;;;;5158484;27;19909;-73
2022/09/23 09:17:44;;;;;;;;;;;15.60;59.20;;;;;;5149104;27;19976;-73
2022/09/23 09:20:29;;;;;;;;;;;15.70;59.20;;;;;;5137635;27;19947;-73
2022/09/23 09:22:59;;;;;;;;;;;15.80;59.00;;;;;;5129880;27;19959;-73
2022/09/23 09:25:35;;;;;;;;;;;15.80;58.80;;;;;;5142395;27;19911;-72
2022/09/23 09:28:02;;;;;;;;;;;15.90;58.60;;;;;;5122533;27;20358;-73
2022/09/23 09:30:27;;;;;;;;;;;15.90;58.30;;;;;;5158313;27;19907;-73
2022/09/23 09:33:19;;;;;;;;;;;16.00;58.30;;;;;;5157913;27;20361;-73
2022/09/23 09:36:06;;;;;;;;;;;16.00;58.30;;;;;;5152575;27;19914;-73
2022/09/23 09:38:32;;;;;;;;;;;16.10;58.30;;;;;;5157933;27;20357;-73
2022/09/23 09:41:00;;;;;;;;;;;16.10;58.00;;;;;;5129203;27;20027;-74
2022/09/23 09:43:26;;;;;;;;;;;16.20;57.70;;;;;;5137307;27;19953;-73
2022/09/23 09:46:00;;;;;;;;;;;16.20;57.60;;;;;;5137306;27;19907;-73
2022/09/23 09:48:49;;;;;;;;;;;16.30;57.70;;;;;;5123253;27;19919;-73
2022/09/23 09:51:20;;;;;;;;;;;16.40;57.70;;;;;;5137117;27;20374;-73
2022/09/23 09:53:46;;;;;;;;;;;16.50;57.50;;;;;;5137066;27;20346;-73
2022/09/23 09:56:13;;;;;;;;;;;16.50;57.60;;;;;;5136977;27;19911;-73
2022/09/23 09:58:51;;;;;;;;;;;16.60;57.40;;;;;;5137405;27;19952;-73
2022/09/23 10:01:18;;;;;;;;;;;16.70;57.10;;;;;;5118559;27;19907;-72
2022/09/23 10:03:44;;;;;;;;;;;16.70;56.90;;;;;;5118366;27;20369;-73
2022/09/23 10:06:14;;;;;;;;;;;16.80;56.90;;;;;;5136764;27;19983;-73
2022/09/23 10:08:39;;;;;;;;;;;16.80;56.90;;;;;;5136643;27;19922;-72
2022/09/23 10:11:11;;;;;;;;;;;16.90;57.00;;;;;;5118267;27;20378;-72
2022/09/23 10:13:37;;;;;;;;;;;16.90;56.90;;;;;;5137206;27;19910;-72
2022/09/23 10:16:03;;;;;;;;;;;17.00;56.70;;;;;;5157173;27;20269;-74
2022/09/23 10:18:30;;;;;;;;;;;17.10;56.50;;;;;;5141283;27;19950;-73
2022/09/23 10:21:00;;;;;;;;;;;17.10;56.40;;;;;;5149078;27;19985;-73
2022/09/23 10:23:27;;;;;;;;;;;17.10;55.70;;;;;;5149374;27;19899;-73
2022/09/23 10:26:11;;;;;;;;;;;17.20;55.70;;;;;;5156560;27;19911;-74
2022/09/23 10:28:36;;;;;;;;;;;17.20;55.50;;;;;;5155260;27;19899;-74
2022/09/23 10:31:04;;;;;;;;;;;17.30;55.60;;;;;;5156995;27;19933;-74
2022/09/23 10:33:30;;;;;;;;;;;17.40;55.30;;;;;;5156697;27;19946;-74
2022/09/23 10:35:56;;;;;;;;;;;17.40;54.80;;;;;;5156774;27;19921;-74
2022/09/23 10:38:22;;;;;;;;;;;17.50;54.70;;;;;;5136200;27;19918;-74
2022/09/23 10:46:40;;;;;;;;;;;17.70;54.80;;;;;;5135859;27;20319;-73
2022/09/23 10:49:26;;;;;;;;;;;17.80;54.50;;;;;;5155740;27;19960;-73
2022/09/23 10:51:55;;;;;;;;;;;17.90;54.20;;;;;;5156553;27;19944;-73
2022/09/23 10:54:44;;;;;;;;;;;17.90;54.20;;;;;;5137872;27;20020;-73
2022/09/23 10:57:41;;;;;;;;;;;18.00;54.20;;;;;;5156504;27;19903;-73
2022/09/23 11:00:33;;;;;;;;;;;18.10;53.70;;;;;;5049915;27;19918;-73
2022/09/23 11:03:08;;;;;;;;;;;18.10;52.80;;;;;;5133030;27;19986;-73
2022/09/23 11:05:45;;;;;;;;;;;18.10;53.10;;;;;;5117259;27;19903;-73
2022/09/23 11:08:20;;;;;;;;;;;18.20;53.30;;;;;;5135601;27;19910;-73
2022/09/23 11:10:57;;;;;;;;;;;18.30;53.10;;;;;;5135677;27;20267;-73
2022/09/23 11:13:29;;;;;;;;;;;18.30;53.10;;;;;;5135402;27;19910;-73
2022/09/23 11:16:13;;;;;;;;;;;18.40;52.90;;;;;;5116937;27;19952;-73
2022/09/23 11:18:58;;;;;;;;;;;18.40;52.50;;;;;;5135067;27;19918;-72
2022/09/23 11:21:43;;;;;;;;;;;18.50;52.20;;;;;;5116726;27;19911;-72
2022/09/23 11:24:18;;;;;;;;;;;18.60;52.30;;;;;;5135191;27;19968;-73
2022/09/23 11:26:51;;;;;;;;;;;18.60;51.90;;;;;;5135200;27;20382;-73
2022/09/23 11:29:41;;;;;;;;;;;18.70;51.60;;;;;;5135096;27;19955;-73
2022/09/23 11:32:07;;;;;;;;;;;18.70;51.50;;;;;;5134804;27;19911;-73
2022/09/23 11:34:51;;;;;;;;;;;18.80;51.70;;;;;;5116528;27;20018;-73
2022/09/23 11:37:19;;;;;;;;;;;18.80;51.40;;;;;;5116428;27;19903;-73
2022/09/23 11:39:48;;;;;;;;;;;18.90;51.10;;;;;;5134761;27;19914;-73
2022/09/23 11:42:18;;;;;;;;;;;18.90;50.90;;;;;;5116300;27;20255;-73
2022/09/23 11:44:48;;;;;;;;;;;19.00;50.60;;;;;;5148602;27;20333;-73
2022/09/23 11:47:35;;;;;;;;;;;19.00;50.20;;;;;;5153371;27;19907;-72
2022/09/23 11:50:00;;;;;;;;;;;19.00;50.00;;;;;;5133855;27;20384;-72
2022/09/23 11:52:30;;;;;;;;;;;19.10;50.00;;;;;;5155281;27;19903;-72
2022/09/23 11:55:02;;;;;;;;;;;19.10;49.40;;;;;;5136588;27;19910;-73
2022/09/23 11:57:33;;;;;;;;;;;19.20;49.40;;;;;;5155302;27;20226;-73
2022/09/23 12:00:01;;;;;;;;;;;19.20;48.80;;;;;;5155306;27;19907;-74
2022/09/23 12:02:32;;;;;;;;;;;19.20;48.90;;;;;;5155173;27;19967;-74
2022/09/23 12:05:16;;;;;;;;;;;19.20;48.90;;;;;;5136725;27;19903;-74
2022/09/23 12:07:57;;;;;;;;;;;19.30;48.50;;;;;;5154250;27;19910;-74
2022/09/23 12:10:25;;;;;;;;;;;19.30;49.10;;;;;;5134520;27;19903;-73
2022/09/23 12:12:56;;;;;;;;;;;19.40;48.60;;;;;;5134375;27;19903;-74
2022/09/23 12:15:33;;;;;;;;;;;19.40;48.30;;;;;;5134297;27;19948;-73
2022/09/23 12:18:10;;;;;;;;;;;19.40;48.10;;;;;;5133835;27;19907;-74
2022/09/23 12:20:55;;;;;;;;;;;19.50;48.10;;;;;;5139544;27;20381;-74
2022/09/23 12:23:43;;;;;;;;;;;19.50;48.30;;;;;;5141336;27;19907;-74
2022/09/23 12:26:16;;;;;;;;;;;19.60;48.40;;;;;;5154258;27;19907;-72
2022/09/23 12:28:48;;;;;;;;;;;19.60;47.50;;;;;;5136137;27;19903;-72
2022/09/23 12:31:15;;;;;;;;;;;19.60;47.90;;;;;;5154305;27;19907;-74
2022/09/23 12:33:47;;;;;;;;;;;19.70;47.50;;;;;;5149032;27;19915;-72
2022/09/23 12:36:13;;;;;;;;;;;19.70;46.80;;;;;;5123506;27;20389;-74
2022/09/23 12:38:39;;;;;;;;;;;19.80;46.50;;;;;;5143156;27;19915;-73
2022/09/23 12:41:36;;;;;;;;;;;19.80;46.00;;;;;;5143533;27;19948;-74
2022/09/23 12:44:11;;;;;;;;;;;19.80;45.80;;;;;;5122238;27;19907;-73
2022/09/23 12:46:37;;;;;;;;;;;19.90;46.10;;;;;;5149874;27;19903;-72
2022/09/23 12:49:05;;;;;;;;;;;19.90;45.70;;;;;;5129277;27;19907;-73
2022/09/23 12:51:34;;;;;;;;;;;20.00;45.30;;;;;;5130321;27;19966;-72
2022/09/23 12:54:21;;;;;;;;;;;20.00;45.50;;;;;;5148484;27;20035;-72
2022/09/23 12:56:52;;;;;;;;;;;20.00;45.30;;;;;;5145296;27;19907;-72
2022/09/23 12:59:24;;;;;;;;;;;20.10;45.50;;;;;;5130770;27;19980;-73
2022/09/23 13:01:50;;;;;;;;;;;20.20;45.50;;;;;;5149985;27;19987;-72
2022/09/23 13:07:25;;;;;;;;;;;20.30;45.30;;;;;;5150858;27;19952;-73
2022/09/23 13:09:52;;;;;;;;;;;20.30;45.40;;;;;;5150940;27;19907;-72
2022/09/23 13:12:28;;;;;;;;;;;20.40;45.20;;;;;;5128459;27;19942;-74
2022/09/23 13:14:54;;;;;;;;;;;20.40;44.70;;;;;;5159562;27;20527;-73
2022/09/23 13:17:26;;;;;;;;;;;20.40;44.60;;;;;;5156662;27;20277;-73
2022/09/23 13:20:00;;;;;;;;;;;20.50;44.70;;;;;;5125640;27;19917;-73
2022/09/23 13:22:58;;;;;;;;;;;20.50;44.80;;;;;;5151696;27;19936;-74
2022/09/23 13:25:25;;;;;;;;;;;20.50;45.50;;;;;;5155040;27;20273;-73
2022/09/23 13:27:54;;;;;;;;;;;20.60;44.30;;;;;;5141983;27;20378;-73
2022/09/23 13:30:22;;;;;;;;;;;20.60;43.60;;;;;;5160508;27;19935;-73
2022/09/23 13:32:54;;;;;;;;;;;20.60;43.20;;;;;;5152764;27;20352;-74
2022/09/23 13:35:31;;;;;;;;;;;20.70;43.10;;;;;;5159309;27;19907;-73
2022/09/23 13:38:01;;;;;;;;;;;20.70;43.30;;;;;;5159637;27;19984;-72
2022/09/23 13:40:27;;;;;;;;;;;20.80;43.00;;;;;;5144935;27;19913;-73
2022/09/23 13:42:58;;;;;;;;;;;20.80;42.70;;;;;;5160469;27;19926;-73
2022/09/23 13:45:26;;;;;;;;;;;20.80;42.50;;;;;;5140529;27;19918;-73
2022/09/23 13:47:53;;;;;;;;;;;20.90;42.60;;;;;;5139215;27;19943;-73
2022/09/23 13:50:21;;;;;;;;;;;20.90;42.80;;;;;;5140300;27;19903;-73
2022/09/23 13:52:54;;;;;;;;;;;21.00;42.20;;;;;;5150000;27;19952;-73
2022/09/23 13:55:28;;;;;;;;;;;21.00;42.30;;;;;;5132758;27;20277;-74
2022/09/23 13:58:02;;;;;;;;;;;21.00;41.90;;;;;;5152098;27;20323;-73
2022/09/23 14:00:31;;;;;;;;;;;21.10;41.90;;;;;;5155006;27;19907;-72
2022/09/23 14:02:57;;;;;;;;;;;21.10;42.00;;;;;;5140053;27;19907;-73
2022/09/23 14:05:24;;;;;;;;;;;21.20;41.90;;;;;;5122690;27;20251;-73
2022/09/23 14:07:50;;;;;;;;;;;21.30;41.50;;;;;;5131158;27;20310;-73
2022/09/23 14:10:17;;;;;;;;;;;21.40;41.50;;;;;;5156718;27;19903;-72
2022/09/23 14:12:43;;;;;;;;;;;21.50;40.90;;;;;;5138299;27;19910;-72
2022/09/23 14:15:13;;;;;;;;;;;21.60;41.30;;;;;;5134663;27;19907;-72
2022/09/23 14:17:39;;;;;;;;;;;21.80;40.70;;;;;;5156721;27;19907;-73
2022/09/23 14:20:11;;;;;;;;;;;21.90;40.00;;;;;;5154806;27;20374;-74
2022/09/23 14:22:36;;;;;;;;;;;22.00;39.90;;;;;;5156032;27;19907;-73
2022/09/23 14:25:02;;;;;;;;;;;22.10;40.00;;;;;;5130943;27;20043;-73
2022/09/23 14:27:32;;;;;;;;;;;22.30;40.30;;;;;;5132408;27;19907;-73
2022/09/23 14:30:01;;;;;;;;;;;22.40;40.50;;;;;;5145793;27;19929;-74
2022/09/23 14:32:28;;;;;;;;;;;22.60;40.40;;;;;;5120185;27;19998;-73
2022/09/23 14:35:00;;;;;;;;;;;22.70;39.90;;;;;;5143171;27;19946;-73
2022/09/23 14:40:20;;;;;;;;;;;23.10;39.90;;;;;;5155498;27;20261;-74
2022/09/23 14:42:50;;;;;;;;;;;23.30;40.10;;;;;;5121845;27;20548;-74
2022/09/23 14:45:20;;;;;;;;;;;23.50;40.10;;;;;;5136320;27;20307;-74
2022/09/23 14:47:48;;;;;;;;;;;23.60;39.70;;;;;;5127482;27;19914;-73